sensor_id;sensor_type;location;lat;lon;timestamp;P1;durP1;ratioP1;P2;durP2;ratioP2
29330;SDS011;16331;52.528;13.342;2022-11-23T00:01:35;68.72;;;20.42;;
29330;SDS011;16331;52.528;13.342;2022-11-23T00:04:03;64.07;;;19.13;;
29330;SDS011;16331;52.528;13.342;2022-11-23T00:06:34;54.67;;;16.83;;
29330;SDS011;16331;52.528;13.342;2022-11-23T00:09:01;60.42;;;18.83;;
29330;SDS011;16331;52.528;13.342;2022-11-23T00:11:32;55.33;;;17.92;;
29330;SDS011;16331;52.528;13.342;2022-11-23T00:14:00;78.35;;;19.75;;
29330;SDS011;16331;52.528;13.342;2022-11-23T00:16:28;68.82;;;18.42;;
29330;SDS011;16331;52.528;13.342;2022-11-23T00:18:56;71.20;;;20.65;;
29330;SDS011;16331;52.528;13.342;2022-11-23T00:21:24;61.65;;;18.98;;
29330;SDS011;16331;52.528;13.342;2022-11-23T00:23:54;53.25;;;17.75;;
29330;SDS011;16331;52.528;13.342;2022-11-23T00:26:20;67.88;;;19.60;;
29330;SDS011;16331;52.528;13.342;2022-11-23T00:28:47;62.05;;;18.83;;
29330;SDS011;16331;52.528;13.342;2022-11-23T00:31:14;60.78;;;18.90;;
29330;SDS011;16331;52.528;13.342;2022-11-23T00:33:47;62.38;;;17.65;;
29330;SDS011;16331;52.528;13.342;2022-11-23T00:36:15;55.40;;;17.37;;
29330;SDS011;16331;52.528;13.342;2022-11-23T00:38:42;63.85;;;18.20;;
29330;SDS011;16331;52.528;13.342;2022-11-23T00:41:10;63.35;;;18.40;;
29330;SDS011;16331;52.528;13.342;2022-11-23T00:43:37;71.32;;;20.67;;
29330;SDS011;16331;52.528;13.342;2022-11-23T00:46:09;66.72;;;19.52;;
29330;SDS011;16331;52.528;13.342;2022-11-23T00:48:43;69.20;;;19.40;;
29330;SDS011;16331;52.528;13.342;2022-11-23T00:51:12;84.82;;;21.23;;
29330;SDS011;16331;52.528;13.342;2022-11-23T00:53:40;66.57;;;18.58;;
29330;SDS011;16331;52.528;13.342;2022-11-23T00:56:07;67.95;;;18.40;;
29330;SDS011;16331;52.528;13.342;2022-11-23T00:58:34;57.13;;;18.27;;
29330;SDS011;16331;52.528;13.342;2022-11-23T01:01:08;66.72;;;20.20;;
29330;SDS011;16331;52.528;13.342;2022-11-23T01:03:37;58.75;;;18.73;;
29330;SDS011;16331;52.528;13.342;2022-11-23T01:06:07;70.22;;;18.00;;
29330;SDS011;16331;52.528;13.342;2022-11-23T01:08:38;61.30;;;19.85;;
29330;SDS011;16331;52.528;13.342;2022-11-23T01:11:06;74.30;;;19.95;;
29330;SDS011;16331;52.528;13.342;2022-11-23T01:13:37;71.72;;;18.45;;
29330;SDS011;16331;52.528;13.342;2022-11-23T01:16:18;56.75;;;18.70;;
29330;SDS011;16331;52.528;13.342;2022-11-23T01:18:55;77.95;;;20.15;;
29330;SDS011;16331;52.528;13.342;2022-11-23T01:21:24;63.72;;;19.08;;
29330;SDS011;16331;52.528;13.342;2022-11-23T01:23:55;70.93;;;19.15;;
29330;SDS011;16331;52.528;13.342;2022-11-23T01:26:22;70.43;;;19.35;;
29330;SDS011;16331;52.528;13.342;2022-11-23T01:28:48;57.28;;;16.73;;
29330;SDS011;16331;52.528;13.342;2022-11-23T01:31:19;92.50;;;21.42;;
29330;SDS011;16331;52.528;13.342;2022-11-23T01:33:46;76.83;;;18.77;;
29330;SDS011;16331;52.528;13.342;2022-11-23T01:36:20;58.25;;;19.02;;
29330;SDS011;16331;52.528;13.342;2022-11-23T01:38:48;65.47;;;20.60;;
29330;SDS011;16331;52.528;13.342;2022-11-23T01:41:20;57.88;;;19.80;;
29330;SDS011;16331;52.528;13.342;2022-11-23T01:46:16;56.75;;;16.50;;
29330;SDS011;16331;52.528;13.342;2022-11-23T01:51:17;65.53;;;16.63;;
29330;SDS011;16331;52.528;13.342;2022-11-23T01:53:47;75.65;;;20.23;;
29330;SDS011;16331;52.528;13.342;2022-11-23T01:56:19;59.08;;;19.58;;
29330;SDS011;16331;52.528;13.342;2022-11-23T01:58:53;73.97;;;20.02;;
29330;SDS011;16331;52.528;13.342;2022-11-23T02:01:24;64.47;;;18.80;;
29330;SDS011;16331;52.528;13.342;2022-11-23T02:03:53;58.70;;;19.17;;
29330;SDS011;16331;52.528;13.342;2022-11-23T02:06:25;58.38;;;18.63;;
29330;SDS011;16331;52.528;13.342;2022-11-23T02:08:56;63.47;;;18.55;;
29330;SDS011;16331;52.528;13.342;2022-11-23T02:11:22;63.58;;;19.05;;
29330;SDS011;16331;52.528;13.342;2022-11-23T02:13:49;65.75;;;19.33;;
29330;SDS011;16331;52.528;13.342;2022-11-23T02:16:16;54.00;;;17.05;;
29330;SDS011;16331;52.528;13.342;2022-11-23T02:18:43;56.13;;;19.10;;
29330;SDS011;16331;52.528;13.342;2022-11-23T02:21:12;57.20;;;18.42;;
29330;SDS011;16331;52.528;13.342;2022-11-23T02:26:38;63.65;;;18.77;;
29330;SDS011;16331;52.528;13.342;2022-11-23T02:29:10;72.68;;;19.60;;
29330;SDS011;16331;52.528;13.342;2022-11-23T02:31:53;60.63;;;19.38;;
29330;SDS011;16331;52.528;13.342;2022-11-23T02:34:19;61.42;;;19.05;;
29330;SDS011;16331;52.528;13.342;2022-11-23T02:36:47;56.72;;;19.23;;
29330;SDS011;16331;52.528;13.342;2022-11-23T02:42:06;61.63;;;18.45;;
29330;SDS011;16331;52.528;13.342;2022-11-23T02:45:07;60.97;;;19.00;;
29330;SDS011;16331;52.528;13.342;2022-11-23T02:47:37;63.83;;;19.90;;
29330;SDS011;16331;52.528;13.342;2022-11-23T02:50:04;61.55;;;17.60;;
29330;SDS011;16331;52.528;13.342;2022-11-23T02:52:31;65.60;;;19.77;;
29330;SDS011;16331;52.528;13.342;2022-11-23T02:54:57;69.38;;;20.38;;
29330;SDS011;16331;52.528;13.342;2022-11-23T02:57:24;71.63;;;20.60;;
29330;SDS011;16331;52.528;13.342;2022-11-23T02:59:52;73.53;;;21.98;;
29330;SDS011;16331;52.528;13.342;2022-11-23T03:02:18;75.82;;;20.70;;
29330;SDS011;16331;52.528;13.342;2022-11-23T03:04:45;63.25;;;17.90;;
29330;SDS011;16331;52.528;13.342;2022-11-23T03:07:11;64.45;;;20.15;;
29330;SDS011;16331;52.528;13.342;2022-11-23T03:09:37;59.85;;;19.52;;
29330;SDS011;16331;52.528;13.342;2022-11-23T03:12:03;67.90;;;20.58;;
29330;SDS011;16331;52.528;13.342;2022-11-23T03:14:30;66.28;;;17.98;;
29330;SDS011;16331;52.528;13.342;2022-11-23T03:16:56;64.28;;;18.88;;
29330;SDS011;16331;52.528;13.342;2022-11-23T03:19:23;54.30;;;19.13;;
29330;SDS011;16331;52.528;13.342;2022-11-23T03:21:49;58.00;;;19.48;;
29330;SDS011;16331;52.528;13.342;2022-11-23T03:24:15;66.53;;;19.73;;
29330;SDS011;16331;52.528;13.342;2022-11-23T03:26:41;70.07;;;18.15;;
29330;SDS011;16331;52.528;13.342;2022-11-23T03:29:08;57.85;;;18.05;;
29330;SDS011;16331;52.528;13.342;2022-11-23T03:31:34;44.92;;;17.23;;
29330;SDS011;16331;52.528;13.342;2022-11-23T03:34:00;56.40;;;18.90;;
29330;SDS011;16331;52.528;13.342;2022-11-23T03:36:32;51.58;;;17.85;;
29330;SDS011;16331;52.528;13.342;2022-11-23T03:38:58;59.50;;;17.00;;
29330;SDS011;16331;52.528;13.342;2022-11-23T03:41:24;49.03;;;15.15;;
29330;SDS011;16331;52.528;13.342;2022-11-23T03:43:52;57.08;;;18.30;;
29330;SDS011;16331;52.528;13.342;2022-11-23T03:46:19;51.20;;;16.55;;
29330;SDS011;16331;52.528;13.342;2022-11-23T03:48:45;58.05;;;18.55;;
29330;SDS011;16331;52.528;13.342;2022-11-23T03:51:11;60.25;;;18.10;;
29330;SDS011;16331;52.528;13.342;2022-11-23T03:53:37;49.13;;;17.08;;
29330;SDS011;16331;52.528;13.342;2022-11-23T03:56:03;55.50;;;19.42;;
29330;SDS011;16331;52.528;13.342;2022-11-23T03:58:31;71.15;;;18.60;;
29330;SDS011;16331;52.528;13.342;2022-11-23T04:00:57;66.45;;;18.40;;
29330;SDS011;16331;52.528;13.342;2022-11-23T04:03:23;48.33;;;16.17;;
29330;SDS011;16331;52.528;13.342;2022-11-23T04:05:50;56.92;;;18.38;;
29330;SDS011;16331;52.528;13.342;2022-11-23T04:08:17;63.50;;;18.65;;
29330;SDS011;16331;52.528;13.342;2022-11-23T04:10:43;58.58;;;17.50;;
29330;SDS011;16331;52.528;13.342;2022-11-23T04:13:09;54.53;;;15.52;;
29330;SDS011;16331;52.528;13.342;2022-11-23T04:15:35;60.22;;;18.58;;
29330;SDS011;16331;52.528;13.342;2022-11-23T04:18:01;61.72;;;18.67;;
29330;SDS011;16331;52.528;13.342;2022-11-23T04:20:28;51.55;;;15.65;;
29330;SDS011;16331;52.528;13.342;2022-11-23T04:22:55;49.90;;;18.05;;
29330;SDS011;16331;52.528;13.342;2022-11-23T04:25:21;53.17;;;18.33;;
29330;SDS011;16331;52.528;13.342;2022-11-23T04:27:47;57.13;;;17.88;;
29330;SDS011;16331;52.528;13.342;2022-11-23T04:30:14;54.72;;;19.25;;
29330;SDS011;16331;52.528;13.342;2022-11-23T04:32:42;48.65;;;16.75;;
29330;SDS011;16331;52.528;13.342;2022-11-23T04:35:10;49.95;;;16.10;;
29330;SDS011;16331;52.528;13.342;2022-11-23T04:37:36;77.32;;;18.38;;
29330;SDS011;16331;52.528;13.342;2022-11-23T04:40:03;63.03;;;16.70;;
29330;SDS011;16331;52.528;13.342;2022-11-23T04:42:29;57.42;;;16.88;;
29330;SDS011;16331;52.528;13.342;2022-11-23T04:44:55;53.10;;;17.17;;
29330;SDS011;16331;52.528;13.342;2022-11-23T04:47:23;59.88;;;16.60;;
29330;SDS011;16331;52.528;13.342;2022-11-23T04:49:49;56.40;;;18.52;;
29330;SDS011;16331;52.528;13.342;2022-11-23T04:52:16;51.65;;;15.65;;
29330;SDS011;16331;52.528;13.342;2022-11-23T04:54:42;52.67;;;17.52;;
29330;SDS011;16331;52.528;13.342;2022-11-23T04:57:08;61.20;;;16.20;;
29330;SDS011;16331;52.528;13.342;2022-11-23T04:59:34;55.05;;;18.05;;
29330;SDS011;16331;52.528;13.342;2022-11-23T05:02:00;61.83;;;17.63;;
29330;SDS011;16331;52.528;13.342;2022-11-23T05:04:26;58.45;;;18.58;;
29330;SDS011;16331;52.528;13.342;2022-11-23T05:06:53;59.95;;;17.95;;
29330;SDS011;16331;52.528;13.342;2022-11-23T05:09:19;47.92;;;16.95;;
29330;SDS011;16331;52.528;13.342;2022-11-23T05:11:46;60.17;;;17.17;;
29330;SDS011;16331;52.528;13.342;2022-11-23T05:14:12;60.45;;;15.57;;
29330;SDS011;16331;52.528;13.342;2022-11-23T05:16:38;64.75;;;18.95;;
29330;SDS011;16331;52.528;13.342;2022-11-23T05:19:14;57.85;;;18.73;;
29330;SDS011;16331;52.528;13.342;2022-11-23T05:21:41;66.03;;;16.50;;
29330;SDS011;16331;52.528;13.342;2022-11-23T05:24:10;54.03;;;16.13;;
29330;SDS011;16331;52.528;13.342;2022-11-23T05:26:38;54.17;;;18.38;;
29330;SDS011;16331;52.528;13.342;2022-11-23T05:29:04;54.85;;;15.20;;
29330;SDS011;16331;52.528;13.342;2022-11-23T05:31:32;53.22;;;17.50;;
29330;SDS011;16331;52.528;13.342;2022-11-23T05:33:58;69.55;;;19.00;;
29330;SDS011;16331;52.528;13.342;2022-11-23T05:36:24;49.58;;;16.23;;
29330;SDS011;16331;52.528;13.342;2022-11-23T05:38:50;52.88;;;18.17;;
29330;SDS011;16331;52.528;13.342;2022-11-23T05:41:17;66.13;;;17.13;;
29330;SDS011;16331;52.528;13.342;2022-11-23T05:43:54;46.55;;;15.88;;
29330;SDS011;16331;52.528;13.342;2022-11-23T05:46:21;52.95;;;16.65;;
29330;SDS011;16331;52.528;13.342;2022-11-23T05:48:47;50.97;;;16.30;;
29330;SDS011;16331;52.528;13.342;2022-11-23T05:51:37;53.40;;;17.83;;
29330;SDS011;16331;52.528;13.342;2022-11-23T05:54:04;51.90;;;16.65;;
29330;SDS011;16331;52.528;13.342;2022-11-23T05:56:30;51.20;;;15.85;;
29330;SDS011;16331;52.528;13.342;2022-11-23T05:58:56;50.15;;;15.70;;
29330;SDS011;16331;52.528;13.342;2022-11-23T06:01:23;54.65;;;15.98;;
29330;SDS011;16331;52.528;13.342;2022-11-23T06:03:49;47.40;;;16.30;;
29330;SDS011;16331;52.528;13.342;2022-11-23T06:06:17;58.75;;;19.83;;
29330;SDS011;16331;52.528;13.342;2022-11-23T06:08:43;49.65;;;15.80;;
29330;SDS011;16331;52.528;13.342;2022-11-23T06:11:09;49.40;;;16.05;;
29330;SDS011;16331;52.528;13.342;2022-11-23T06:13:36;46.60;;;14.77;;
29330;SDS011;16331;52.528;13.342;2022-11-23T06:16:02;52.97;;;16.27;;
29330;SDS011;16331;52.528;13.342;2022-11-23T06:18:29;49.88;;;16.98;;
29330;SDS011;16331;52.528;13.342;2022-11-23T06:20:58;45.97;;;16.25;;
29330;SDS011;16331;52.528;13.342;2022-11-23T06:23:28;48.45;;;16.55;;
29330;SDS011;16331;52.528;13.342;2022-11-23T06:25:58;41.38;;;17.00;;
29330;SDS011;16331;52.528;13.342;2022-11-23T06:28:26;41.38;;;13.88;;
29330;SDS011;16331;52.528;13.342;2022-11-23T06:30:53;56.72;;;16.95;;
29330;SDS011;16331;52.528;13.342;2022-11-23T06:33:20;53.13;;;17.77;;
29330;SDS011;16331;52.528;13.342;2022-11-23T06:38:20;33.33;;;13.73;;
29330;SDS011;16331;52.528;13.342;2022-11-23T06:40:48;44.85;;;16.25;;
29330;SDS011;16331;52.528;13.342;2022-11-23T06:43:16;46.38;;;15.63;;
29330;SDS011;16331;52.528;13.342;2022-11-23T06:45:42;47.22;;;14.02;;
29330;SDS011;16331;52.528;13.342;2022-11-23T06:48:08;45.17;;;14.48;;
29330;SDS011;16331;52.528;13.342;2022-11-23T06:50:35;55.40;;;14.95;;
29330;SDS011;16331;52.528;13.342;2022-11-23T06:53:01;47.22;;;16.35;;
29330;SDS011;16331;52.528;13.342;2022-11-23T06:55:28;55.20;;;16.35;;
29330;SDS011;16331;52.528;13.342;2022-11-23T06:57:57;47.95;;;18.10;;
29330;SDS011;16331;52.528;13.342;2022-11-23T07:00:24;48.55;;;15.65;;
29330;SDS011;16331;52.528;13.342;2022-11-23T07:02:51;43.60;;;17.38;;
29330;SDS011;16331;52.528;13.342;2022-11-23T07:05:19;44.60;;;16.20;;
29330;SDS011;16331;52.528;13.342;2022-11-23T07:07:46;51.53;;;16.75;;
29330;SDS011;16331;52.528;13.342;2022-11-23T07:10:13;55.30;;;16.48;;
29330;SDS011;16331;52.528;13.342;2022-11-23T07:12:41;49.70;;;16.33;;
29330;SDS011;16331;52.528;13.342;2022-11-23T07:15:08;49.08;;;15.07;;
29330;SDS011;16331;52.528;13.342;2022-11-23T07:17:39;63.80;;;18.10;;
29330;SDS011;16331;52.528;13.342;2022-11-23T07:20:28;47.63;;;15.77;;
29330;SDS011;16331;52.528;13.342;2022-11-23T07:22:58;38.72;;;15.27;;
29330;SDS011;16331;52.528;13.342;2022-11-23T07:25:32;54.53;;;16.67;;
29330;SDS011;16331;52.528;13.342;2022-11-23T07:28:00;43.53;;;17.05;;
29330;SDS011;16331;52.528;13.342;2022-11-23T07:30:28;50.75;;;16.42;;
29330;SDS011;16331;52.528;13.342;2022-11-23T07:33:17;41.35;;;15.57;;
29330;SDS011;16331;52.528;13.342;2022-11-23T07:35:46;51.47;;;14.23;;
29330;SDS011;16331;52.528;13.342;2022-11-23T07:38:13;49.30;;;17.58;;
29330;SDS011;16331;52.528;13.342;2022-11-23T07:40:39;53.20;;;16.98;;
29330;SDS011;16331;52.528;13.342;2022-11-23T07:43:06;47.45;;;15.75;;
29330;SDS011;16331;52.528;13.342;2022-11-23T07:45:32;60.95;;;17.63;;
29330;SDS011;16331;52.528;13.342;2022-11-23T07:48:04;54.53;;;16.58;;
29330;SDS011;16331;52.528;13.342;2022-11-23T07:50:32;65.27;;;17.77;;
29330;SDS011;16331;52.528;13.342;2022-11-23T07:53:02;53.85;;;16.13;;
29330;SDS011;16331;52.528;13.342;2022-11-23T07:55:32;49.13;;;16.52;;
29330;SDS011;16331;52.528;13.342;2022-11-23T07:58:05;63.85;;;18.60;;
29330;SDS011;16331;52.528;13.342;2022-11-23T08:00:36;58.33;;;18.83;;
29330;SDS011;16331;52.528;13.342;2022-11-23T08:03:03;69.40;;;19.00;;
29330;SDS011;16331;52.528;13.342;2022-11-23T08:05:30;68.20;;;18.35;;
29330;SDS011;16331;52.528;13.342;2022-11-23T08:08:00;50.33;;;15.57;;
29330;SDS011;16331;52.528;13.342;2022-11-23T08:10:30;51.53;;;17.05;;
29330;SDS011;16331;52.528;13.342;2022-11-23T08:12:57;48.25;;;16.55;;
29330;SDS011;16331;52.528;13.342;2022-11-23T08:15:24;50.90;;;16.55;;
29330;SDS011;16331;52.528;13.342;2022-11-23T08:18:00;57.90;;;16.20;;
29330;SDS011;16331;52.528;13.342;2022-11-23T08:20:28;53.45;;;18.95;;
29330;SDS011;16331;52.528;13.342;2022-11-23T08:22:54;46.25;;;15.93;;
29330;SDS011;16331;52.528;13.342;2022-11-23T08:25:22;49.13;;;16.38;;
29330;SDS011;16331;52.528;13.342;2022-11-23T08:27:59;55.40;;;17.70;;
29330;SDS011;16331;52.528;13.342;2022-11-23T08:30:26;53.05;;;16.02;;
29330;SDS011;16331;52.528;13.342;2022-11-23T08:32:54;59.95;;;17.00;;
29330;SDS011;16331;52.528;13.342;2022-11-23T08:35:22;60.03;;;17.67;;
29330;SDS011;16331;52.528;13.342;2022-11-23T08:37:49;49.60;;;17.10;;
29330;SDS011;16331;52.528;13.342;2022-11-23T08:40:15;48.95;;;15.82;;
29330;SDS011;16331;52.528;13.342;2022-11-23T08:45:36;49.78;;;15.68;;
29330;SDS011;16331;52.528;13.342;2022-11-23T08:48:15;48.65;;;15.63;;
29330;SDS011;16331;52.528;13.342;2022-11-23T08:51:22;39.88;;;13.80;;
29330;SDS011;16331;52.528;13.342;2022-11-23T08:53:58;51.40;;;16.98;;
29330;SDS011;16331;52.528;13.342;2022-11-23T08:57:11;39.13;;;14.35;;
29330;SDS011;16331;52.528;13.342;2022-11-23T08:59:37;50.70;;;14.43;;
29330;SDS011;16331;52.528;13.342;2022-11-23T09:02:07;40.42;;;14.73;;
29330;SDS011;16331;52.528;13.342;2022-11-23T09:05:07;53.25;;;15.80;;
29330;SDS011;16331;52.528;13.342;2022-11-23T09:10:43;54.17;;;16.67;;
29330;SDS011;16331;52.528;13.342;2022-11-23T09:13:27;49.78;;;14.15;;
29330;SDS011;16331;52.528;13.342;2022-11-23T09:15:58;48.78;;;15.95;;
29330;SDS011;16331;52.528;13.342;2022-11-23T09:18:26;43.72;;;15.50;;
29330;SDS011;16331;52.528;13.342;2022-11-23T09:20:54;42.50;;;14.15;;
29330;SDS011;16331;52.528;13.342;2022-11-23T09:23:21;36.40;;;13.68;;
29330;SDS011;16331;52.528;13.342;2022-11-23T09:25:48;37.65;;;12.90;;
29330;SDS011;16331;52.528;13.342;2022-11-23T09:28:15;38.53;;;15.60;;
29330;SDS011;16331;52.528;13.342;2022-11-23T09:30:43;32.60;;;13.00;;
29330;SDS011;16331;52.528;13.342;2022-11-23T09:33:14;43.85;;;16.38;;
29330;SDS011;16331;52.528;13.342;2022-11-23T09:35:40;35.22;;;13.68;;
29330;SDS011;16331;52.528;13.342;2022-11-23T09:38:06;33.28;;;12.85;;
29330;SDS011;16331;52.528;13.342;2022-11-23T09:40:35;35.45;;;12.60;;
29330;SDS011;16331;52.528;13.342;2022-11-23T09:46:10;37.65;;;14.05;;
29330;SDS011;16331;52.528;13.342;2022-11-23T09:52:14;38.25;;;13.10;;
29330;SDS011;16331;52.528;13.342;2022-11-23T09:54:43;32.20;;;12.05;;
29330;SDS011;16331;52.528;13.342;2022-11-23T09:57:15;31.35;;;12.10;;
29330;SDS011;16331;52.528;13.342;2022-11-23T10:00:34;32.90;;;11.88;;
29330;SDS011;16331;52.528;13.342;2022-11-23T10:02:46;39.42;;;12.35;;
29330;SDS011;16331;52.528;13.342;2022-11-23T10:05:16;37.25;;;12.02;;
29330;SDS011;16331;52.528;13.342;2022-11-23T10:24:23;34.45;;;12.43;;
29330;SDS011;16331;52.528;13.342;2022-11-23T10:26:58;36.80;;;11.15;;
29330;SDS011;16331;52.528;13.342;2022-11-23T10:31:59;36.83;;;11.30;;
29330;SDS011;16331;52.528;13.342;2022-11-23T10:37:32;27.52;;;10.95;;
29330;SDS011;16331;52.528;13.342;2022-11-23T10:40:04;30.50;;;10.55;;
29330;SDS011;16331;52.528;13.342;2022-11-23T10:42:52;26.30;;;11.10;;
29330;SDS011;16331;52.528;13.342;2022-11-23T10:45:25;29.40;;;11.43;;
29330;SDS011;16331;52.528;13.342;2022-11-23T10:47:59;32.92;;;11.05;;
29330;SDS011;16331;52.528;13.342;2022-11-23T10:50:27;28.77;;;10.45;;
29330;SDS011;16331;52.528;13.342;2022-11-23T10:53:16;29.52;;;11.57;;
29330;SDS011;16331;52.528;13.342;2022-11-23T10:55:54;35.28;;;11.30;;
29330;SDS011;16331;52.528;13.342;2022-11-23T10:58:33;27.70;;;11.10;;
29330;SDS011;16331;52.528;13.342;2022-11-23T11:01:11;31.75;;;10.80;;
29330;SDS011;16331;52.528;13.342;2022-11-23T11:03:44;30.40;;;10.43;;
29330;SDS011;16331;52.528;13.342;2022-11-23T11:06:11;26.15;;;9.60;;
29330;SDS011;16331;52.528;13.342;2022-11-23T11:08:54;27.45;;;10.45;;
29330;SDS011;16331;52.528;13.342;2022-11-23T11:11:24;30.48;;;10.40;;
29330;SDS011;16331;52.528;13.342;2022-11-23T11:14:03;26.75;;;10.70;;
29330;SDS011;16331;52.528;13.342;2022-11-23T11:16:34;26.60;;;9.98;;
29330;SDS011;16331;52.528;13.342;2022-11-23T11:21:51;21.30;;;9.93;;
29330;SDS011;16331;52.528;13.342;2022-11-23T11:24:18;23.35;;;10.05;;
29330;SDS011;16331;52.528;13.342;2022-11-23T11:27:05;25.58;;;9.32;;
29330;SDS011;16331;52.528;13.342;2022-11-23T11:29:49;35.88;;;10.55;;
29330;SDS011;16331;52.528;13.342;2022-11-23T11:32:28;27.95;;;10.82;;
29330;SDS011;16331;52.528;13.342;2022-11-23T11:38:07;34.65;;;9.35;;
29330;SDS011;16331;52.528;13.342;2022-11-23T11:40:48;35.63;;;10.68;;
29330;SDS011;16331;52.528;13.342;2022-11-23T11:43:22;30.73;;;11.48;;
29330;SDS011;16331;52.528;13.342;2022-11-23T11:46:09;29.92;;;10.85;;
29330;SDS011;16331;52.528;13.342;2022-11-23T11:48:51;27.08;;;11.43;;
29330;SDS011;16331;52.528;13.342;2022-11-23T11:51:25;31.33;;;10.73;;
29330;SDS011;16331;52.528;13.342;2022-11-23T11:54:23;30.15;;;11.00;;
29330;SDS011;16331;52.528;13.342;2022-11-23T11:56:59;28.05;;;10.18;;
29330;SDS011;16331;52.528;13.342;2022-11-23T12:02:33;31.38;;;10.50;;
29330;SDS011;16331;52.528;13.342;2022-11-23T12:05:26;41.33;;;14.25;;
29330;SDS011;16331;52.528;13.342;2022-11-23T12:10:57;25.70;;;10.73;;
29330;SDS011;16331;52.528;13.342;2022-11-23T12:19:19;33.88;;;11.07;;
29330;SDS011;16331;52.528;13.342;2022-11-23T12:25:12;27.10;;;10.63;;
29330;SDS011;16331;52.528;13.342;2022-11-23T12:30:24;24.08;;;10.45;;
29330;SDS011;16331;52.528;13.342;2022-11-23T12:33:24;33.03;;;11.07;;
29330;SDS011;16331;52.528;13.342;2022-11-23T12:36:48;27.65;;;8.63;;
29330;SDS011;16331;52.528;13.342;2022-11-23T12:42:06;26.15;;;10.30;;
29330;SDS011;16331;52.528;13.342;2022-11-23T12:44:44;23.55;;;9.57;;
29330;SDS011;16331;52.528;13.342;2022-11-23T12:47:56;25.23;;;8.93;;
29330;SDS011;16331;52.528;13.342;2022-11-23T12:50:32;27.60;;;10.35;;
29330;SDS011;16331;52.528;13.342;2022-11-23T12:53:35;28.33;;;10.95;;
29330;SDS011;16331;52.528;13.342;2022-11-23T12:56:39;30.15;;;9.73;;
29330;SDS011;16331;52.528;13.342;2022-11-23T13:14:15;22.23;;;10.25;;
29330;SDS011;16331;52.528;13.342;2022-11-23T13:17:20;28.20;;;11.30;;
29330;SDS011;16331;52.528;13.342;2022-11-23T13:20:36;26.67;;;10.27;;
29330;SDS011;16331;52.528;13.342;2022-11-23T13:23:06;26.80;;;9.93;;
29330;SDS011;16331;52.528;13.342;2022-11-23T13:25:33;30.17;;;11.13;;
29330;SDS011;16331;52.528;13.342;2022-11-23T13:28:46;20.38;;;9.30;;
29330;SDS011;16331;52.528;13.342;2022-11-23T13:33:45;23.83;;;9.80;;
29330;SDS011;16331;52.528;13.342;2022-11-23T13:36:32;22.70;;;9.07;;
29330;SDS011;16331;52.528;13.342;2022-11-23T13:39:01;29.45;;;10.63;;
29330;SDS011;16331;52.528;13.342;2022-11-23T13:44:10;29.02;;;10.18;;
29330;SDS011;16331;52.528;13.342;2022-11-23T13:46:43;22.00;;;8.75;;
29330;SDS011;16331;52.528;13.342;2022-11-23T13:49:49;22.92;;;9.75;;
29330;SDS011;16331;52.528;13.342;2022-11-23T13:57:44;24.65;;;9.65;;
29330;SDS011;16331;52.528;13.342;2022-11-23T14:06:27;27.33;;;9.68;;
29330;SDS011;16331;52.528;13.342;2022-11-23T14:12:03;24.10;;;9.77;;
29330;SDS011;16331;52.528;13.342;2022-11-23T14:29:32;24.50;;;9.52;;
29330;SDS011;16331;52.528;13.342;2022-11-23T14:32:23;25.45;;;8.60;;
29330;SDS011;16331;52.528;13.342;2022-11-23T14:41:13;24.02;;;10.05;;
29330;SDS011;16331;52.528;13.342;2022-11-23T14:44:02;24.90;;;9.98;;
29330;SDS011;16331;52.528;13.342;2022-11-23T14:46:57;29.23;;;10.00;;
29330;SDS011;16331;52.528;13.342;2022-11-23T14:49:47;26.23;;;9.27;;
29330;SDS011;16331;52.528;13.342;2022-11-23T14:52:20;27.35;;;9.38;;
29330;SDS011;16331;52.528;13.342;2022-11-23T14:54:54;28.75;;;9.88;;
29330;SDS011;16331;52.528;13.342;2022-11-23T14:57:23;22.88;;;8.68;;
29330;SDS011;16331;52.528;13.342;2022-11-23T14:59:59;24.50;;;9.13;;
29330;SDS011;16331;52.528;13.342;2022-11-23T15:02:35;27.45;;;8.75;;
29330;SDS011;16331;52.528;13.342;2022-11-23T15:05:20;21.20;;;8.90;;
29330;SDS011;16331;52.528;13.342;2022-11-23T15:11:07;22.80;;;8.48;;
29330;SDS011;16331;52.528;13.342;2022-11-23T15:13:55;21.33;;;8.50;;
29330;SDS011;16331;52.528;13.342;2022-11-23T15:16:27;22.23;;;9.00;;
29330;SDS011;16331;52.528;13.342;2022-11-23T15:18:53;29.20;;;9.93;;
29330;SDS011;16331;52.528;13.342;2022-11-23T15:21:24;25.42;;;9.77;;
29330;SDS011;16331;52.528;13.342;2022-11-23T15:23:52;26.20;;;9.00;;
29330;SDS011;16331;52.528;13.342;2022-11-23T15:29:03;28.40;;;9.23;;
29330;SDS011;16331;52.528;13.342;2022-11-23T15:36:40;26.48;;;9.40;;
29330;SDS011;16331;52.528;13.342;2022-11-23T15:39:15;27.48;;;10.00;;
29330;SDS011;16331;52.528;13.342;2022-11-23T15:41:47;27.60;;;9.68;;
29330;SDS011;16331;52.528;13.342;2022-11-23T15:44:25;28.73;;;10.20;;
29330;SDS011;16331;52.528;13.342;2022-11-23T15:46:58;30.00;;;10.52;;
29330;SDS011;16331;52.528;13.342;2022-11-23T15:49:27;27.30;;;9.90;;
29330;SDS011;16331;52.528;13.342;2022-11-23T15:51:59;22.77;;;8.40;;
29330;SDS011;16331;52.528;13.342;2022-11-23T15:54:44;29.83;;;9.57;;
29330;SDS011;16331;52.528;13.342;2022-11-23T15:57:37;20.85;;;9.20;;
29330;SDS011;16331;52.528;13.342;2022-11-23T16:00:06;25.90;;;9.77;;
29330;SDS011;16331;52.528;13.342;2022-11-23T16:02:34;22.08;;;9.68;;
29330;SDS011;16331;52.528;13.342;2022-11-23T16:05:07;24.48;;;9.32;;
29330;SDS011;16331;52.528;13.342;2022-11-23T16:10:54;29.02;;;9.73;;
29330;SDS011;16331;52.528;13.342;2022-11-23T16:16:49;25.40;;;8.45;;
29330;SDS011;16331;52.528;13.342;2022-11-23T16:19:46;20.83;;;9.60;;
29330;SDS011;16331;52.528;13.342;2022-11-23T16:30:42;31.33;;;11.70;;
29330;SDS011;16331;52.528;13.342;2022-11-23T16:33:19;29.20;;;9.80;;
29330;SDS011;16331;52.528;13.342;2022-11-23T16:35:55;19.08;;;8.02;;
29330;SDS011;16331;52.528;13.342;2022-11-23T16:38:22;25.90;;;10.23;;
29330;SDS011;16331;52.528;13.342;2022-11-23T16:40:50;31.52;;;9.65;;
29330;SDS011;16331;52.528;13.342;2022-11-23T16:43:17;28.60;;;10.13;;
29330;SDS011;16331;52.528;13.342;2022-11-23T16:45:45;24.95;;;8.75;;
29330;SDS011;16331;52.528;13.342;2022-11-23T16:48:55;33.00;;;10.50;;
29330;SDS011;16331;52.528;13.342;2022-11-23T16:51:06;38.58;;;10.48;;
29330;SDS011;16331;52.528;13.342;2022-11-23T16:53:56;31.38;;;10.55;;
29330;SDS011;16331;52.528;13.342;2022-11-23T16:56:38;23.40;;;9.90;;
29330;SDS011;16331;52.528;13.342;2022-11-23T16:59:17;27.02;;;10.63;;
29330;SDS011;16331;52.528;13.342;2022-11-23T17:01:45;26.70;;;11.02;;
29330;SDS011;16331;52.528;13.342;2022-11-23T17:04:13;31.95;;;10.25;;
29330;SDS011;16331;52.528;13.342;2022-11-23T17:06:41;42.17;;;11.30;;
29330;SDS011;16331;52.528;13.342;2022-11-23T17:09:08;25.50;;;10.65;;
29330;SDS011;16331;52.528;13.342;2022-11-23T17:11:39;26.25;;;9.40;;
29330;SDS011;16331;52.528;13.342;2022-11-23T17:14:10;26.98;;;10.57;;
29330;SDS011;16331;52.528;13.342;2022-11-23T17:16:39;24.27;;;10.38;;